Historique des mesures à Cassis (13260), France
Quotidien Résumé Novembre 24, 2017 Unités:  Métrique    US   Métrique/US
« Précédent (Jour)
Suivant (Jour) »
Quotidien Hebdomadaire Mensuel Annuel Période au choix
  Maximum: Minimum: Moyenne:
Température: TemperatureC °C 11.6 °C 13.5 °C
Point de rosée: DewpointC °C 9.0 °C 10.5 °C
Humidité: Humidity % 77 % 78 %
Vitesse du vent: 0 km/h 0 km/h 2.1 km/h
Rafales: 0 km/h - -
Vent:- - ESE
Pression: PressurehPa hPa 1014.4 hPa -
Précipitations: 0.0 mm    
Historical Graphs
 
 
Mesures pour : Novembre 24, 2017
Heure Temperature Point de rosée Pression Vent Vitesse du vent Rafales Humidité Pluie (par heure) Conditions
TemperatureC °C DewpointC °C PressurehPa hPa Calm     Humidity % HourlyPrecipMM mm SoftwareType W/m2
01:11 11.6 °C 9.0 °C 1017.8 hPa Calm     84 % 0.0 mm open2300-1.11 W/m2
02:10 11.9 °C 9.4 °C 1017.8 hPa Calm     85 % 0.0 mm open2300-1.11 W/m2
03:11 12.5 °C 10.0 °C 1017.5 hPa Calm     85 % 0.0 mm open2300-1.11 W/m2
04:10 12.5 °C 9.8 °C 1017.2 hPa Calm     84 % 0.0 mm open2300-1.11 W/m2
05:11 12.8 °C 10.1 °C 1017.2 hPa Calm   2.3 km/h 84 % 0.0 mm open2300-1.11 W/m2
06:10 13.0 °C 10.3 °C 1017.2 hPa Calm     84 % 0.0 mm open2300-1.11 W/m2
07:11 13.4 °C 10.7 °C 1017.5 hPa Calm   5.6 km/h 84 % 0.0 mm open2300-1.11 W/m2
09:11 13.8 °C 11.1 °C 1017.8 hPa East 9.8 km/h 9.8 km/h 84 % 0.0 mm open2300-1.11 W/m2
11:11 14.7 °C 11.8 °C 1017.8 hPa ESE 4.7 km/h 7.6 km/h 83 % 0.0 mm open2300-1.11 W/m2
12:10 14.9 °C 11.8 °C 1017.2 hPa South 10.9 km/h 10.9 km/h 82 % 0.0 mm open2300-1.11 W/m2
13:11 15.4 °C 12.0 °C 1016.8 hPa Calm   9.8 km/h 80 % 0.0 mm open2300-1.11 W/m2
14:10 15.5 °C 11.9 °C 1016.1 hPa SSE 6.9 km/h 8 km/h 79 % 0.0 mm open2300-1.11 W/m2
15:11 15.3 °C 11.5 °C 1015.8 hPa Calm   6.9 km/h 78 % 0.0 mm open2300-1.11 W/m2
16:10 15.3 °C 11.5 °C 1015.8 hPa ENE 8 km/h 9.3 km/h 78 % 0.0 mm open2300-1.11 W/m2
17:11 15.1 °C 11.1 °C 1015.8 hPa Calm   13.2 km/h 77 % 0.0 mm open2300-1.11 W/m2
18:10 14.9 °C 11.1 °C 1015.8 hPa ESE 6.4 km/h 6.4 km/h 78 % 0.0 mm open2300-1.11 W/m2
19:11 14.8 °C 11.0 °C 1015.8 hPa Calm   5.1 km/h 78 % 0.0 mm open2300-1.11 W/m2
20:10 14.8 °C 11.2 °C 1015.5 hPa Calm   2.3 km/h 79 % 0.0 mm open2300-1.11 W/m2
21:11 14.8 °C 11.6 °C 1015.8 hPa Calm   8 km/h 81 % 0.0 mm open2300-1.11 W/m2
22:10 14.9 °C 11.7 °C 1015.1 hPa Calm   5.6 km/h 81 % 0.0 mm open2300-1.11 W/m2
23:11 14.9 °C 11.7 °C 1014.4 hPa Calm   8.9 km/h 81 % 0.0 mm open2300-1.11 W/m2
Observations météo à CASSIS
WU-History script by Weather Underground - 1 mb